Time,TemperatureF,DewpointF,PressureIn,WindDirection,WindDirectionDegrees,WindSpeedMPH,WindSpeedGustMPH,Humidity,HourlyPrecipIn,Conditions,Clouds,dailyrainin,SolarRadiationWatts/m^2,SoftwareType,DateUTC
2013-07-26 00:02:00,61.0,60.0,-100.00,NNW,333,2.0,5.0,97,-99.99,,,0.07,0.000000,,2013-07-26 04:02:00,
2013-07-26 00:12:00,61.0,60.0,-100.00,NNW,333,2.0,5.0,97,-99.99,,,0.07,0.000000,,2013-07-26 04:12:00,
2013-07-26 00:23:00,61.0,60.0,-100.00,NNW,333,2.0,5.0,97,-99.99,,,0.07,0.000000,,2013-07-26 04:23:00,
2013-07-26 00:53:00,62.0,60.0,-100.00,NNW,338,3.0,7.0,93,0.00,,,0.07,0.000000,,2013-07-26 04:53:00,
2013-07-26 01:02:00,62.0,60.0,-100.00,NNW,338,3.0,7.0,93,0.00,,,0.07,0.000000,,2013-07-26 05:02:00,
2013-07-26 01:12:00,62.0,60.0,-100.00,NNW,338,3.0,7.0,93,0.00,,,0.07,0.000000,,2013-07-26 05:12:00,
2013-07-26 01:22:00,62.0,60.0,-100.00,NNW,338,3.0,7.0,93,0.00,,,0.07,0.000000,,2013-07-26 05:22:00,
2013-07-26 01:52:00,62.0,60.0,-100.00,NW,311,3.0,7.0,93,0.00,,,0.07,0.000000,,2013-07-26 05:52:00,
2013-07-26 02:02:00,62.0,60.0,-100.00,NW,311,3.0,7.0,93,0.00,,,0.07,0.000000,,2013-07-26 06:02:00,
2013-07-26 02:12:00,62.0,60.0,-100.00,NW,311,3.0,7.0,93,0.00,,,0.07,0.000000,,2013-07-26 06:12:00,
2013-07-26 02:22:00,62.0,60.0,-100.00,NW,311,3.0,7.0,93,0.00,,,0.07,0.000000,,2013-07-26 06:22:00,
2013-07-26 03:02:00,62.0,60.0,-100.00,NW,323,2.0,7.0,92,0.00,,,0.07,0.000000,,2013-07-26 07:02:00,
2013-07-26 03:12:00,62.0,60.0,-100.00,NW,323,2.0,7.0,92,0.00,,,0.07,0.000000,,2013-07-26 07:12:00,
2013-07-26 03:22:00,62.0,60.0,-100.00,NW,323,2.0,7.0,92,0.00,,,0.07,0.000000,,2013-07-26 07:22:00,
2013-07-26 03:53:00,62.0,60.0,-100.00,NW,312,2.0,6.0,92,0.01,,,0.08,0.000000,,2013-07-26 07:53:00,
2013-07-26 04:02:00,62.0,60.0,-100.00,NW,312,2.0,6.0,92,0.01,,,0.08,0.000000,,2013-07-26 08:02:00,
2013-07-26 04:12:00,62.0,60.0,-100.00,NW,312,2.0,6.0,92,0.01,,,0.08,0.000000,,2013-07-26 08:12:00,
2013-07-26 04:22:00,62.0,60.0,-100.00,NW,312,2.0,6.0,92,0.01,,,0.08,0.000000,,2013-07-26 08:22:00,
2013-07-26 04:52:00,62.0,60.0,-100.00,NNW,330,3.0,7.0,93,0.01,,,0.09,0.000000,,2013-07-26 08:52:00,
2013-07-26 05:02:00,62.0,60.0,-100.00,NNW,330,3.0,7.0,93,0.01,,,0.09,0.000000,,2013-07-26 09:02:00,
2013-07-26 05:12:00,62.0,60.0,-100.00,NNW,330,3.0,7.0,93,0.01,,,0.09,0.000000,,2013-07-26 09:12:00,
2013-07-26 05:22:00,62.0,60.0,-100.00,NNW,330,3.0,7.0,93,0.01,,,0.09,0.000000,,2013-07-26 09:22:00,
2013-07-26 05:52:00,62.0,61.0,-100.00,North,355,3.0,8.0,95,0.02,,,0.11,0.000000,,2013-07-26 09:52:00,
2013-07-26 06:02:00,62.0,61.0,-100.00,North,355,3.0,8.0,95,0.02,,,0.11,0.000000,,2013-07-26 10:02:00,
2013-07-26 06:12:00,62.0,61.0,-100.00,North,355,3.0,8.0,95,0.02,,,0.11,0.000000,,2013-07-26 10:12:00,
2013-07-26 06:22:00,62.0,61.0,-100.00,North,355,3.0,8.0,95,0.02,,,0.11,0.000000,,2013-07-26 10:22:00,
2013-07-26 06:53:00,62.0,61.0,-100.00,NNW,328,4.0,9.0,96,0.04,,,0.15,6.000000,,2013-07-26 10:53:00,
2013-07-26 07:02:00,62.0,61.0,-100.00,NNW,328,4.0,9.0,96,0.04,,,0.15,6.000000,,2013-07-26 11:02:00,
2013-07-26 07:12:00,62.0,61.0,-100.00,NNW,328,4.0,9.0,96,0.04,,,0.15,6.000000,,2013-07-26 11:12:00,
2013-07-26 07:22:00,62.0,61.0,-100.00,NNW,328,4.0,9.0,96,0.04,,,0.15,6.000000,,2013-07-26 11:22:00,
2013-07-26 07:52:00,62.0,61.0,-100.00,NNW,330,3.0,11.0,95,0.02,,,0.17,37.000000,,2013-07-26 11:52:00,
2013-07-26 08:02:00,62.0,61.0,-100.00,NNW,330,3.0,11.0,95,0.02,,,0.17,37.000000,,2013-07-26 12:02:00,
2013-07-26 08:12:00,62.0,61.0,-100.00,NNW,330,3.0,11.0,95,0.02,,,0.17,37.000000,,2013-07-26 12:12:00,
2013-07-26 08:22:00,62.0,61.0,-100.00,NNW,330,3.0,11.0,95,0.02,,,0.17,37.000000,,2013-07-26 12:22:00,
2013-07-26 08:53:00,63.0,61.0,-100.00,NNW,342,5.0,15.0,94,0.01,,,0.18,68.000000,,2013-07-26 12:53:00,
2013-07-26 09:02:00,63.0,61.0,-100.00,NNW,342,5.0,15.0,94,0.01,,,0.18,68.000000,,2013-07-26 13:02:00,
2013-07-26 09:12:00,63.0,61.0,-100.00,NNW,342,5.0,15.0,94,0.01,,,0.18,68.000000,,2013-07-26 13:12:00,
2013-07-26 09:23:00,63.0,61.0,-100.00,NNW,342,5.0,15.0,94,0.01,,,0.18,68.000000,,2013-07-26 13:23:00,
2013-07-26 09:53:00,64.0,62.0,-100.00,NNW,347,3.0,12.0,93,0.00,,,0.18,82.000000,,2013-07-26 13:53:00,
2013-07-26 10:03:00,64.0,62.0,-100.00,NNW,347,3.0,12.0,93,0.00,,,0.18,82.000000,,2013-07-26 14:03:00,
2013-07-26 10:12:00,64.0,62.0,-100.00,NNW,347,3.0,12.0,93,0.00,,,0.18,82.000000,,2013-07-26 14:12:00,
2013-07-26 10:22:00,64.0,62.0,-100.00,NNW,347,3.0,12.0,93,0.00,,,0.18,82.000000,,2013-07-26 14:22:00,
2013-07-26 10:53:00,65.0,63.0,-100.00,North,352,5.0,13.0,94,0.01,,,0.19,112.000000,,2013-07-26 14:53:00,
2013-07-26 11:03:00,65.0,63.0,-100.00,North,352,5.0,13.0,94,0.01,,,0.19,112.000000,,2013-07-26 15:03:00,
2013-07-26 11:12:00,65.0,63.0,-100.00,North,352,5.0,13.0,94,0.01,,,0.19,112.000000,,2013-07-26 15:12:00,
2013-07-26 11:22:00,65.0,63.0,-100.00,North,352,5.0,13.0,94,0.01,,,0.19,112.000000,,2013-07-26 15:22:00,
2013-07-26 11:53:00,67.0,64.0,-100.00,NNW,342,4.0,14.0,90,0.00,,,0.19,220.000000,,2013-07-26 15:53:00,
2013-07-26 12:03:00,67.0,64.0,-100.00,NNW,342,4.0,14.0,90,0.00,,,0.19,220.000000,,2013-07-26 16:03:00,
2013-07-26 12:14:00,67.0,64.0,-100.00,NNW,342,4.0,14.0,90,0.00,,,0.19,220.000000,,2013-07-26 16:14:00,
2013-07-26 12:22:00,67.0,64.0,-100.00,NNW,342,4.0,14.0,90,0.00,,,0.19,220.000000,,2013-07-26 16:22:00,
2013-07-26 13:03:00,69.0,64.0,-100.00,NNW,333,6.0,13.0,84,0.00,,,0.19,265.000000,,2013-07-26 17:03:00,
2013-07-26 13:12:00,69.0,64.0,-100.00,NNW,333,6.0,13.0,84,0.00,,,0.19,265.000000,,2013-07-26 17:12:00,
2013-07-26 13:22:00,69.0,64.0,-100.00,NNW,333,6.0,13.0,84,0.00,,,0.19,265.000000,,2013-07-26 17:22:00,
2013-07-26 13:53:00,70.0,63.0,-100.00,NNW,347,6.0,16.0,79,0.00,,,0.19,289.000000,,2013-07-26 17:53:00,
2013-07-26 14:03:00,70.0,63.0,-100.00,NNW,347,6.0,16.0,79,0.00,,,0.19,289.000000,,2013-07-26 18:03:00,
2013-07-26 14:12:00,70.0,63.0,-100.00,NNW,347,6.0,16.0,79,0.00,,,0.19,289.000000,,2013-07-26 18:12:00,
2013-07-26 14:23:00,70.0,63.0,-100.00,NNW,347,6.0,16.0,79,0.00,,,0.19,289.000000,,2013-07-26 18:23:00,
2013-07-26 14:53:00,74.0,65.0,-100.00,NNW,341,5.0,14.0,73,0.00,,,0.19,378.000000,,2013-07-26 18:53:00,
2013-07-26 15:03:00,74.0,65.0,-100.00,NNW,341,5.0,14.0,73,0.00,,,0.19,378.000000,,2013-07-26 19:03:00,
2013-07-26 15:12:00,74.0,65.0,-100.00,NNW,341,5.0,14.0,73,0.00,,,0.19,378.000000,,2013-07-26 19:12:00,
2013-07-26 15:23:00,74.0,65.0,-100.00,NNW,341,5.0,14.0,73,0.00,,,0.19,378.000000,,2013-07-26 19:23:00,
2013-07-26 16:03:00,75.0,65.0,-100.00,NW,323,4.0,14.0,70,0.00,,,0.19,370.000000,,2013-07-26 20:03:00,
2013-07-26 16:12:00,75.0,65.0,-100.00,NW,323,4.0,14.0,70,0.00,,,0.19,370.000000,,2013-07-26 20:12:00,
2013-07-26 16:22:00,75.0,65.0,-100.00,NW,323,4.0,14.0,70,0.00,,,0.19,370.000000,,2013-07-26 20:22:00,
2013-07-26 16:53:00,73.0,63.0,-100.00,NW,308,3.0,13.0,72,0.00,,,0.19,185.000000,,2013-07-26 20:53:00,
2013-07-26 17:02:00,73.0,63.0,-100.00,NW,308,3.0,13.0,72,0.00,,,0.19,185.000000,,2013-07-26 21:02:00,
2013-07-26 17:12:00,73.0,63.0,-100.00,NW,308,3.0,13.0,72,0.00,,,0.19,185.000000,,2013-07-26 21:12:00,
2013-07-26 17:22:00,73.0,63.0,-100.00,NW,308,3.0,13.0,72,0.00,,,0.19,185.000000,,2013-07-26 21:22:00,
2013-07-26 17:53:00,73.0,64.0,-100.00,NW,324,3.0,11.0,73,0.00,,,0.19,96.000000,,2013-07-26 21:53:00,
2013-07-26 18:02:00,73.0,64.0,-100.00,NW,324,3.0,11.0,73,0.00,,,0.19,96.000000,,2013-07-26 22:02:00,
2013-07-26 18:12:00,73.0,64.0,-100.00,NW,324,3.0,11.0,73,0.00,,,0.19,96.000000,,2013-07-26 22:12:00,
2013-07-26 18:22:00,73.0,64.0,-100.00,NW,324,3.0,11.0,73,0.00,,,0.19,96.000000,,2013-07-26 22:22:00,
2013-07-26 18:53:00,70.0,67.0,-100.00,NW,316,0.0,7.0,91,0.01,,,0.18,45.000000,,2013-07-26 22:53:00,
2013-07-26 19:02:00,70.0,67.0,-100.00,NW,316,0.0,7.0,91,0.01,,,0.18,45.000000,,2013-07-26 23:02:00,
2013-07-26 19:12:00,70.0,67.0,-100.00,NW,316,0.0,7.0,91,0.01,,,0.18,45.000000,,2013-07-26 23:12:00,
2013-07-26 19:22:00,70.0,67.0,-100.00,NW,316,0.0,7.0,91,0.01,,,0.18,45.000000,,2013-07-26 23:22:00,
2013-07-26 19:53:00,69.0,65.0,-100.00,NNW,338,2.0,9.0,88,0.00,,,0.13,13.000000,,2013-07-26 23:53:00,
2013-07-26 20:02:00,69.0,65.0,-100.00,NNW,338,2.0,9.0,88,0.00,,,0.13,13.000000,,2013-07-27 00:02:00,
2013-07-26 20:12:00,69.0,65.0,-100.00,NNW,338,2.0,9.0,88,0.00,,,0.13,13.000000,,2013-07-27 00:12:00,
2013-07-26 20:22:00,69.0,65.0,-100.00,NNW,338,2.0,9.0,88,0.00,,,0.13,13.000000,,2013-07-27 00:22:00,
2013-07-26 20:53:00,68.0,66.0,-100.00,NW,319,2.0,6.0,94,0.00,,,0.13,2.000000,,2013-07-27 00:53:00,
2013-07-26 21:02:00,68.0,66.0,-100.00,NW,319,2.0,6.0,94,0.00,,,0.13,2.000000,,2013-07-27 01:02:00,
2013-07-26 21:12:00,68.0,66.0,-100.00,NW,319,2.0,6.0,94,0.00,,,0.13,2.000000,,2013-07-27 01:12:00,
2013-07-26 21:22:00,68.0,66.0,-100.00,NW,319,2.0,6.0,94,0.00,,,0.13,2.000000,,2013-07-27 01:22:00,
2013-07-26 21:53:00,67.0,65.0,-100.00,WNW,283,2.0,8.0,94,0.02,,,0.15,0.000000,,2013-07-27 01:53:00,
2013-07-26 22:02:00,67.0,65.0,-100.00,WNW,283,2.0,8.0,94,0.02,,,0.15,0.000000,,2013-07-27 02:02:00,
2013-07-26 22:12:00,67.0,65.0,-100.00,WNW,283,2.0,8.0,94,0.02,,,0.15,0.000000,,2013-07-27 02:12:00,
2013-07-26 22:22:00,67.0,65.0,-100.00,WNW,283,2.0,8.0,94,0.02,,,0.15,0.000000,,2013-07-27 02:22:00,
2013-07-26 22:53:00,66.0,65.0,-100.00,WNW,302,1.0,5.0,97,0.01,,,-99.99,0.000000,,2013-07-27 02:53:00,
2013-07-26 23:03:00,66.0,65.0,-100.00,WNW,302,1.0,5.0,97,0.01,,,-99.99,0.000000,,2013-07-27 03:03:00,
2013-07-26 23:12:00,66.0,65.0,-100.00,WNW,302,1.0,5.0,97,0.01,,,-99.99,0.000000,,2013-07-27 03:12:00,
2013-07-26 23:22:00,66.0,65.0,-100.00,WNW,302,1.0,5.0,97,0.01,,,-99.99,0.000000,,2013-07-27 03:22:00,
2013-07-26 23:52:00,66.0,65.0,-100.00,NW,322,1.0,5.0,97,0.00,,,0.16,0.000000,,2013-07-27 03:52:00,